Time;durP1;ratioP1;P1;durP2;ratioP2;P2;SDS_P1;SDS_P2;PMS_P1;PMS_P2;Temp;Humidity;BMP_temperature;BMP_pressure;BME280_temperature;BME280_humidity;BME280_pressure;Samples;Min_cycle;Max_cycle;Signal;HPM_P1;HPM_P2
2021/01/31 00:00:24;;;;;;;17.93;16.23;;;1.50;99.90;;;;;;5092879;28;20177;-81
2021/01/31 00:02:50;;;;;;;17.07;15.40;;;1.60;99.90;;;;;;5088415;28;20289;-81
2021/01/31 00:05:17;;;;;;;17.47;15.87;;;1.50;99.90;;;;;;5097387;28;20202;-82
2021/01/31 00:07:43;;;;;;;14.90;10.97;;;1.50;99.90;;;;;;5092191;28;20208;-81
2021/01/31 00:10:12;;;;;;;17.57;15.77;;;1.50;99.90;;;;;;5092530;28;20213;-81
2021/01/31 00:12:37;;;;;;;17.73;15.93;;;1.50;99.90;;;;;;5086019;28;20265;-81
2021/01/31 00:15:06;;;;;;;18.43;16.70;;;1.50;99.90;;;;;;5092317;28;20266;-81
2021/01/31 00:17:31;;;;;;;18.27;16.47;;;1.50;99.90;;;;;;5092650;28;20182;-81
2021/01/31 00:19:57;;;;;;;17.73;16.03;;;1.50;99.90;;;;;;5091474;28;20254;-81
2021/01/31 00:22:23;;;;;;;18.10;16.17;;;1.40;99.90;;;;;;5092566;28;20203;-81
2021/01/31 00:24:53;;;;;;;17.67;15.97;;;1.40;99.90;;;;;;5075294;28;20198;-81
2021/01/31 00:27:21;;;;;;;15.73;11.47;;;1.40;99.90;;;;;;5075776;28;20199;-81
2021/01/31 00:29:47;;;;;;;17.90;16.20;;;1.20;99.90;;;;;;5090275;28;20182;-81
2021/01/31 00:32:12;;;;;;;19.23;16.80;;;1.30;99.90;;;;;;5093366;28;20182;-81
2021/01/31 00:34:38;;;;;;;15.63;12.27;;;1.30;99.90;;;;;;5093143;28;20179;-81
2021/01/31 00:37:04;;;;;;;18.30;16.50;;;1.30;99.90;;;;;;5093632;28;20182;-81
2021/01/31 00:39:30;;;;;;;20.57;12.37;;;1.30;99.90;;;;;;5092983;28;20283;-80
2021/01/31 00:41:55;;;;;;;17.47;15.67;;;1.40;99.90;;;;;;5068269;28;20639;-81
2021/01/31 00:44:21;;;;;;;18.13;16.30;;;1.50;99.90;;;;;;5092306;28;20188;-81
2021/01/31 00:46:46;;;;;;;16.67;15.03;;;1.40;99.90;;;;;;5090693;28;20174;-80
2021/01/31 00:49:12;;;;;;;17.33;15.63;;;1.40;99.90;;;;;;5091186;28;20691;-81
2021/01/31 00:51:37;;;;;;;17.63;15.93;;;1.40;99.90;;;;;;5076132;28;20183;-81
2021/01/31 00:54:04;;;;;;;17.73;16.07;;;1.40;99.90;;;;;;5087931;28;20222;-81
2021/01/31 00:56:29;;;;;;;17.10;15.37;;;1.40;99.90;;;;;;5093511;28;20691;-81
2021/01/31 00:58:55;;;;;;;17.83;16.10;;;1.40;99.90;;;;;;5092421;28;20270;-81
2021/01/31 01:01:21;;;;;;;17.60;15.97;;;1.50;99.90;;;;;;5092022;28;20686;-81
2021/01/31 01:03:47;;;;;;;17.03;15.43;;;1.50;99.90;;;;;;5091950;28;20178;-81
2021/01/31 01:06:12;;;;;;;17.03;15.03;;;1.30;99.90;;;;;;5092685;28;20174;-81
2021/01/31 01:08:38;;;;;;;17.10;15.47;;;1.30;99.90;;;;;;5092997;28;20174;-81
2021/01/31 01:11:05;;;;;;;16.53;14.63;;;1.30;99.90;;;;;;5091842;28;20269;-81
2021/01/31 01:13:31;;;;;;;17.10;15.40;;;1.20;99.90;;;;;;5092824;28;20182;-81
2021/01/31 01:15:56;;;;;;;18.33;16.43;;;1.30;99.90;;;;;;5076470;28;20706;-81
2021/01/31 01:18:23;;;;;;;16.73;15.07;;;1.20;99.90;;;;;;5093037;28;20182;-81
2021/01/31 01:20:49;;;;;;;15.27;11.83;;;1.20;99.90;;;;;;5091260;28;20217;-80
2021/01/31 01:23:15;;;;;;;13.90;9.73;;;1.30;99.90;;;;;;5091524;28;20602;-81
2021/01/31 01:25:40;;;;;;;17.17;15.53;;;1.10;99.90;;;;;;5091933;28;20253;-81
2021/01/31 01:28:06;;;;;;;17.87;16.07;;;1.10;99.90;;;;;;5092941;28;20175;-80
2021/01/31 01:30:32;;;;;;;17.53;15.83;;;1.20;99.90;;;;;;5090806;28;20176;-81
2021/01/31 01:32:59;;;;;;;18.83;16.97;;;1.20;99.90;;;;;;5091573;28;20259;-81
2021/01/31 01:35:26;;;;;;;17.23;15.50;;;1.10;99.90;;;;;;5092638;28;20178;-81
2021/01/31 01:37:51;;;;;;;17.70;15.90;;;1.00;99.90;;;;;;5092799;28;20178;-80
2021/01/31 01:40:20;;;;;;;17.70;12.60;;;1.00;99.90;;;;;;5091550;28;20228;-81
2021/01/31 01:42:46;;;;;;;19.33;12.60;;;0.90;99.90;;;;;;5092784;28;20201;-81
2021/01/31 01:45:12;;;;;;;19.43;13.50;;;0.80;99.90;;;;;;5086020;28;20179;-81
2021/01/31 01:47:38;;;;;;;19.80;12.53;;;0.90;99.90;;;;;;5093089;28;20178;-81
2021/01/31 01:50:14;;;;;;;19.23;12.00;;;0.80;99.90;;;;;;5090567;28;20594;-80
2021/01/31 01:52:40;;;;;;;17.87;12.73;;;0.80;99.90;;;;;;5103709;28;20239;-81
2021/01/31 01:55:16;;;;;;;16.33;12.50;;;0.80;99.90;;;;;;5092209;28;20181;-80
2021/01/31 01:57:54;;;;;;;18.07;13.23;;;0.80;99.90;;;;;;5087608;28;20285;-81
2021/01/31 02:00:20;;;;;;;18.43;12.97;;;0.80;99.90;;;;;;5087229;28;20638;-80
2021/01/31 02:03:00;;;;;;;22.30;13.77;;;0.70;99.90;;;;;;5090156;28;20217;-80
2021/01/31 02:05:26;;;;;;;18.20;13.00;;;0.70;99.90;;;;;;5087815;28;20249;-81
2021/01/31 02:07:52;;;;;;;20.23;18.07;;;0.70;99.90;;;;;;5090468;28;20202;-80
2021/01/31 02:10:21;;;;;;;19.07;13.80;;;0.80;99.90;;;;;;5084357;28;20175;-81
2021/01/31 02:12:48;;;;;;;18.47;12.80;;;0.80;99.90;;;;;;5094830;28;20624;-81
2021/01/31 02:15:15;;;;;;;18.67;13.03;;;0.90;99.90;;;;;;5095613;28;20186;-80
2021/01/31 02:17:41;;;;;;;20.47;13.40;;;0.80;99.90;;;;;;5095543;28;20186;-80
2021/01/31 02:20:25;;;;;;;21.57;13.13;;;0.60;99.90;;;;;;5095624;28;20661;-81
2021/01/31 02:23:29;;;;;;;18.50;12.83;;;0.60;99.90;;;;;;5094712;28;20595;-80
2021/01/31 02:26:11;;;;;;;18.57;13.90;;;0.60;99.90;;;;;;5093329;28;20174;-81
2021/01/31 02:28:55;;;;;;;18.20;12.87;;;0.50;99.90;;;;;;5096281;28;20511;-80
2021/01/31 02:31:30;;;;;;;19.97;13.93;;;0.50;99.90;;;;;;5094482;28;20186;-80
2021/01/31 02:34:04;;;;;;;19.73;13.67;;;0.50;99.90;;;;;;5094407;28;20178;-80
2021/01/31 02:36:37;;;;;;;20.77;14.37;;;0.40;99.90;;;;;;5095721;28;20178;-81
2021/01/31 02:39:09;;;;;;;20.93;14.23;;;0.40;99.90;;;;;;5090333;28;20734;-81
2021/01/31 02:41:46;;;;;;;22.00;14.27;;;0.30;99.90;;;;;;5086324;28;20198;-81
2021/01/31 02:44:18;;;;;;;18.77;13.33;;;0.30;99.90;;;;;;5095426;28;20174;-81
2021/01/31 02:47:01;;;;;;;20.80;14.57;;;0.30;99.90;;;;;;5093639;28;20174;-81
2021/01/31 02:49:38;;;;;;;21.20;14.60;;;0.20;99.90;;;;;;5095061;28;20170;-80
2021/01/31 02:52:13;;;;;;;20.17;14.20;;;0.20;99.90;;;;;;5091193;28;20303;-81
2021/01/31 02:54:43;;;;;;;22.37;20.07;;;0.20;99.90;;;;;;5094795;28;20173;-80
2021/01/31 02:57:15;;;;;;;19.73;13.57;;;0.20;99.90;;;;;;5095436;28;20250;-81
2021/01/31 02:59:59;;;;;;;17.37;13.20;;;0.20;99.90;;;;;;5094867;28;20596;-81
2021/01/31 03:02:31;;;;;;;23.37;14.33;;;0.10;99.90;;;;;;5093293;28;20186;-81
2021/01/31 03:05:29;;;;;;;19.17;12.40;;;0.10;99.90;;;;;;5095299;28;20163;-80
2021/01/31 03:08:18;;;;;;;19.87;14.87;;;0.10;99.90;;;;;;5072846;28;20642;-81
2021/01/31 03:10:51;;;;;;;16.97;12.60;;;0.10;99.90;;;;;;5104227;28;20166;-81
2021/01/31 03:13:35;;;;;;;19.00;12.63;;;0.00;99.90;;;;;;5091490;28;20166;-81
2021/01/31 03:16:36;;;;;;;20.47;13.90;;;0.10;99.90;;;;;;5094448;28;20227;-80
2021/01/31 03:19:31;;;;;;;18.47;13.30;;;0.10;99.90;;;;;;5081959;28;20181;-81
2021/01/31 03:22:01;;;;;;;22.03;13.77;;;0.00;99.90;;;;;;5109910;28;20236;-81
2021/01/31 03:24:32;;;;;;;20.93;14.17;;;0.00;99.90;;;;;;5094227;28;20206;-81
2021/01/31 03:27:02;;;;;;;20.70;15.30;;;0.00;99.90;;;;;;5093795;28;20179;-81
2021/01/31 03:29:27;;;;;;;21.87;15.17;;;0.00;99.90;;;;;;5094845;28;20189;-82
2021/01/31 03:32:04;;;;;;;20.30;14.47;;;-0.10;99.90;;;;;;5093220;28;20630;-81
2021/01/31 03:35:09;;;;;;;22.97;15.73;;;-0.10;99.90;;;;;;5094366;28;20182;-81
2021/01/31 03:37:42;;;;;;;20.57;14.67;;;-0.10;99.90;;;;;;5014876;28;20184;-81
2021/01/31 03:40:09;;;;;;;20.70;15.33;;;0.00;99.90;;;;;;5083072;28;20228;-81
2021/01/31 03:42:35;;;;;;;23.70;15.67;;;-0.10;99.90;;;;;;5093104;28;20620;-81
2021/01/31 03:45:06;;;;;;;22.63;16.53;;;-0.10;99.90;;;;;;5092822;28;20201;-80
2021/01/31 03:47:40;;;;;;;19.00;14.00;;;-0.10;99.90;;;;;;5092804;28;20178;-80
2021/01/31 03:50:06;;;;;;;27.10;16.97;;;-0.10;99.90;;;;;;5092884;28;20171;-81
2021/01/31 03:52:32;;;;;;;26.67;17.03;;;-0.10;99.90;;;;;;5089505;28;20269;-80
2021/01/31 03:54:59;;;;;;;23.57;17.00;;;0.00;99.90;;;;;;5049327;28;20668;-81
2021/01/31 03:57:34;;;;;;;21.80;16.23;;;-0.10;99.90;;;;;;5092442;28;20186;-81
2021/01/31 04:00:30;;;;;;;24.13;16.17;;;-0.10;99.90;;;;;;5093943;28;20177;-81
2021/01/31 04:03:03;;;;;;;26.13;15.57;;;-0.10;99.90;;;;;;5093356;28;20206;-80
2021/01/31 04:05:32;;;;;;;22.63;15.43;;;-0.10;99.90;;;;;;5092587;28;20186;-81
2021/01/31 04:08:03;;;;;;;23.73;16.33;;;0.00;99.90;;;;;;5094428;28;20266;-80
2021/01/31 04:10:29;;;;;;;22.50;15.50;;;-0.10;99.90;;;;;;5088027;28;20228;-81
2021/01/31 04:13:00;;;;;;;23.50;16.40;;;-0.20;99.90;;;;;;5093286;28;20186;-80
2021/01/31 04:15:36;;;;;;;25.37;15.30;;;-0.10;99.90;;;;;;5093524;28;20186;-81
2021/01/31 04:18:03;;;;;;;22.90;16.20;;;-0.10;99.90;;;;;;5076752;28;20210;-80
2021/01/31 04:20:28;;;;;;;23.20;15.47;;;-0.10;99.90;;;;;;5092374;28;20262;-80
2021/01/31 04:22:54;;;;;;;25.70;16.93;;;-0.20;99.90;;;;;;5093295;28;20297;-81
2021/01/31 04:25:19;;;;;;;24.27;17.03;;;-0.20;99.90;;;;;;5092058;28;20634;-80
2021/01/31 04:27:45;;;;;;;26.87;17.23;;;-0.20;99.90;;;;;;5092119;28;20650;-80
2021/01/31 04:30:12;;;;;;;22.23;16.30;;;-0.20;99.90;;;;;;5091948;28;20171;-80
2021/01/31 04:32:38;;;;;;;23.40;16.10;;;-0.30;99.90;;;;;;5092744;28;20182;-80
2021/01/31 04:35:06;;;;;;;25.97;16.50;;;-0.30;99.90;;;;;;5091034;28;20182;-80
2021/01/31 04:37:32;;;;;;;22.20;15.87;;;-0.30;99.90;;;;;;5093033;28;20190;-80
2021/01/31 04:39:57;;;;;;;24.90;17.90;;;-0.30;99.90;;;;;;5092000;28;20255;-80
2021/01/31 04:42:23;;;;;;;25.17;16.63;;;-0.30;99.90;;;;;;5093124;28;20681;-80
2021/01/31 04:44:49;;;;;;;26.07;17.77;;;-0.40;99.90;;;;;;5091483;28;20197;-80
2021/01/31 04:47:29;;;;;;;26.70;16.90;;;-0.30;99.90;;;;;;5092463;28;20186;-81
2021/01/31 04:50:13;;;;;;;26.33;16.97;;;-0.30;99.90;;;;;;5092797;28;20603;-80
2021/01/31 04:52:51;;;;;;;22.47;15.90;;;-0.40;99.90;;;;;;5100274;28;20182;-80
2021/01/31 04:55:25;;;;;;;26.33;17.23;;;-0.40;99.90;;;;;;5074183;28;20189;-80
2021/01/31 04:57:53;;;;;;;23.07;15.60;;;-0.40;99.90;;;;;;5089628;28;20189;-80
2021/01/31 05:00:25;;;;;;;29.23;17.27;;;-0.30;99.90;;;;;;5092115;28;20638;-80
2021/01/31 05:02:56;;;;;;;22.80;15.03;;;-0.30;99.90;;;;;;5092683;28;20548;-80
2021/01/31 05:05:47;;;;;;;27.30;24.57;;;-0.40;99.90;;;;;;5090620;28;20596;-80
2021/01/31 05:08:22;;;;;;;27.70;18.20;;;-0.40;99.90;;;;;;5090703;28;20198;-80
2021/01/31 05:11:03;;;;;;;26.53;23.93;;;-0.30;99.90;;;;;;5092894;28;20219;-80
2021/01/31 05:13:43;;;;;;;28.30;17.53;;;-0.30;99.90;;;;;;5086655;28;20171;-80
2021/01/31 05:16:10;;;;;;;25.37;16.00;;;-0.40;99.90;;;;;;5091955;28;20182;-80
2021/01/31 05:18:44;;;;;;;19.93;12.43;;;-0.40;99.90;;;;;;5091519;28;20630;-80
2021/01/31 05:21:13;;;;;;;25.97;17.00;;;-0.50;99.90;;;;;;5097259;28;20273;-80
2021/01/31 05:23:42;;;;;;;24.40;15.33;;;-0.50;99.90;;;;;;5092461;28;20190;-80
2021/01/31 05:26:10;;;;;;;24.57;16.17;;;-0.40;99.90;;;;;;5091838;28;20253;-80
2021/01/31 05:28:41;;;;;;;25.47;17.60;;;-0.50;99.90;;;;;;5092373;28;20186;-80
2021/01/31 05:31:12;;;;;;;27.87;16.60;;;-0.60;99.90;;;;;;5092520;28;20167;-80
2021/01/31 05:33:51;;;;;;;24.77;16.73;;;-0.60;99.90;;;;;;5092357;28;20245;-80
2021/01/31 05:36:19;;;;;;;26.67;18.37;;;-0.60;99.90;;;;;;5090840;28;20170;-80
2021/01/31 05:38:46;;;;;;;28.97;19.40;;;-0.60;99.90;;;;;;5092157;28;20564;-80
2021/01/31 05:41:47;;;;;;;25.67;18.13;;;-0.60;99.90;;;;;;5092054;28;20182;-80
2021/01/31 05:44:15;;;;;;;27.03;17.60;;;-0.60;99.90;;;;;;5085934;28;20166;-80
2021/01/31 05:46:45;;;;;;;29.27;18.63;;;-0.50;99.90;;;;;;5089380;28;20261;-80
2021/01/31 05:49:31;;;;;;;25.10;18.20;;;-0.50;99.90;;;;;;5091559;28;20178;-80
2021/01/31 05:51:58;;;;;;;26.40;17.47;;;-0.50;99.90;;;;;;5094655;28;20194;-79
2021/01/31 05:54:28;;;;;;;25.33;17.90;;;-0.50;99.90;;;;;;5096274;28;20797;-80
2021/01/31 05:56:55;;;;;;;29.23;18.20;;;-0.60;99.90;;;;;;5096043;28;20236;-79
2021/01/31 05:59:21;;;;;;;28.50;19.17;;;-0.60;99.90;;;;;;5096641;28;20220;-79
2021/01/31 06:01:52;;;;;;;25.90;17.73;;;-0.60;99.90;;;;;;5095811;28;20198;-79
2021/01/31 06:04:20;;;;;;;25.30;16.97;;;-0.60;99.90;;;;;;5091828;28;20267;-79
2021/01/31 06:06:46;;;;;;;24.20;18.43;;;-0.50;99.90;;;;;;5108532;28;20179;-79
2021/01/31 06:09:20;;;;;;;29.90;18.43;;;-0.50;99.90;;;;;;5095970;28;20179;-79
2021/01/31 06:11:47;;;;;;;28.43;19.37;;;-0.50;99.90;;;;;;5096006;28;20181;-79
2021/01/31 06:14:16;;;;;;;29.23;17.97;;;-0.60;99.90;;;;;;5096033;28;20178;-79
2021/01/31 06:16:43;;;;;;;29.33;18.90;;;-0.60;99.90;;;;;;5095271;28;20231;-79
2021/01/31 06:19:24;;;;;;;28.27;17.80;;;-0.70;99.90;;;;;;5095344;28;20178;-80
2021/01/31 06:21:50;;;;;;;28.20;18.27;;;-0.60;99.90;;;;;;5086521;28;20774;-79
2021/01/31 06:24:26;;;;;;;29.50;18.43;;;-0.50;99.90;;;;;;5094519;28;20226;-79
2021/01/31 06:26:52;;;;;;;29.63;16.73;;;-0.40;99.90;;;;;;5094184;28;20178;-80
2021/01/31 06:29:56;;;;;;;30.27;19.50;;;-0.50;99.90;;;;;;5095933;28;20182;-79
2021/01/31 06:32:28;;;;;;;27.07;17.37;;;-0.60;99.90;;;;;;5094815;28;20621;-79
2021/01/31 06:34:57;;;;;;;27.87;17.83;;;-0.70;99.90;;;;;;5094050;28;20189;-80
2021/01/31 06:37:37;;;;;;;26.83;19.17;;;-0.70;99.90;;;;;;5096742;28;20232;-79
2021/01/31 06:40:05;;;;;;;30.33;19.07;;;-0.70;99.90;;;;;;5093876;28;20213;-79
2021/01/31 06:42:54;;;;;;;28.77;19.33;;;-0.70;99.90;;;;;;5094726;28;20248;-79
2021/01/31 06:45:40;;;;;;;28.47;18.40;;;-0.60;99.90;;;;;;5092577;28;20544;-79
2021/01/31 06:48:44;;;;;;;28.63;18.30;;;-0.70;99.90;;;;;;5106463;28;20179;-79
2021/01/31 06:51:24;;;;;;;28.00;18.40;;;-0.70;99.90;;;;;;5091922;28;20188;-79
2021/01/31 06:54:17;;;;;;;27.67;18.07;;;-0.70;99.90;;;;;;5075868;28;20159;-79
2021/01/31 06:57:24;;;;;;;27.53;17.77;;;-0.70;99.90;;;;;;5074436;28;20568;-79
2021/01/31 06:59:56;;;;;;;28.57;17.47;;;-0.70;99.90;;;;;;5068214;28;20233;-79
2021/01/31 07:03:10;;;;;;;24.87;16.47;;;-0.70;99.90;;;;;;5082817;28;20217;-79
2021/01/31 07:05:54;;;;;;;32.03;19.40;;;-0.70;99.90;;;;;;5032999;28;20169;-78
2021/01/31 07:08:48;;;;;;;31.73;19.57;;;-0.70;99.90;;;;;;5086589;28;20194;-78
2021/01/31 07:11:28;;;;;;;33.23;19.70;;;-0.70;99.90;;;;;;5093483;28;20209;-78
2021/01/31 07:14:24;;;;;;;29.83;19.33;;;-0.80;99.90;;;;;;5092251;28;20264;-78
2021/01/31 07:16:50;;;;;;;30.13;18.80;;;-0.70;99.90;;;;;;5105266;28;20187;-78
2021/01/31 07:19:26;;;;;;;30.87;19.20;;;-0.60;99.90;;;;;;5089996;28;20173;-78
2021/01/31 07:22:01;;;;;;;29.00;18.13;;;-0.60;99.90;;;;;;5093793;28;20208;-78
2021/01/31 07:24:48;;;;;;;27.73;20.27;;;-0.70;99.90;;;;;;5094476;28;20711;-78
2021/01/31 07:27:24;;;;;;;31.73;18.57;;;-0.70;99.90;;;;;;5088565;28;20181;-78
2021/01/31 07:30:09;;;;;;;30.73;17.87;;;-0.60;99.90;;;;;;5081422;28;20236;-78
2021/01/31 07:33:12;;;;;;;27.47;19.37;;;-0.60;99.90;;;;;;5094469;28;20206;-78
2021/01/31 07:35:52;;;;;;;29.23;18.20;;;-0.60;99.90;;;;;;5076960;28;20174;-78
2021/01/31 07:38:40;;;;;;;30.77;20.20;;;-0.60;99.90;;;;;;5093504;28;20251;-78
2021/01/31 07:41:07;;;;;;;29.73;20.17;;;-0.40;99.90;;;;;;5096197;28;20191;-78
2021/01/31 07:43:36;;;;;;;29.60;18.70;;;-0.40;99.90;;;;;;5094292;28;20530;-78
2021/01/31 07:46:10;;;;;;;29.87;18.77;;;-0.40;99.90;;;;;;5097067;28;20529;-78
2021/01/31 07:48:44;;;;;;;28.60;19.83;;;-0.40;99.90;;;;;;5085293;28;20174;-78
2021/01/31 07:51:12;;;;;;;33.87;20.43;;;-0.30;99.90;;;;;;5095329;28;20213;-78
2021/01/31 07:53:40;;;;;;;30.30;27.03;;;-0.20;99.90;;;;;;5096575;28;20166;-78
2021/01/31 07:56:35;;;;;;;29.57;26.57;;;-0.10;99.90;;;;;;5093961;28;20701;-78
2021/01/31 07:59:10;;;;;;;26.40;19.47;;;-0.20;99.90;;;;;;5081357;28;20605;-78
2021/01/31 08:01:48;;;;;;;26.93;18.50;;;-0.10;99.90;;;;;;5075775;28;20632;-78
2021/01/31 08:04:16;;;;;;;29.57;26.57;;;-0.20;99.90;;;;;;5094298;28;20178;-78
2021/01/31 08:06:57;;;;;;;30.03;18.67;;;-0.30;99.90;;;;;;5092419;28;20204;-78
2021/01/31 08:09:29;;;;;;;24.30;17.50;;;-0.30;99.90;;;;;;5094388;28;20174;-78
2021/01/31 08:11:59;;;;;;;24.63;17.33;;;-0.30;99.90;;;;;;5078247;28;20186;-78
2021/01/31 08:15:02;;;;;;;31.30;20.03;;;-0.10;99.90;;;;;;5093003;28;20182;-77
2021/01/31 08:17:48;;;;;;;28.23;18.00;;;0.10;99.90;;;;;;5078952;28;20209;-77
2021/01/31 08:20:17;;;;;;;31.50;19.70;;;0.10;99.90;;;;;;5104780;28;20206;-77
2021/01/31 08:22:44;;;;;;;27.77;19.23;;;0.00;99.90;;;;;;5091669;28;20283;-78
2021/01/31 08:25:13;;;;;;;27.07;18.67;;;0.00;99.90;;;;;;5091913;28;20178;-77
2021/01/31 08:27:42;;;;;;;26.50;18.57;;;0.30;99.90;;;;;;5093300;28;20191;-78
2021/01/31 08:30:14;;;;;;;27.93;18.73;;;0.00;99.90;;;;;;5083753;28;20179;-78
2021/01/31 08:33:12;;;;;;;26.87;17.43;;;0.00;99.90;;;;;;5093268;28;20202;-77
2021/01/31 08:35:39;;;;;;;29.77;18.80;;;-0.10;99.90;;;;;;5037653;28;20217;-78
2021/01/31 08:38:19;;;;;;;26.03;17.90;;;-0.20;99.90;;;;;;5085586;28;20531;-78
2021/01/31 08:41:06;;;;;;;29.70;18.73;;;-0.20;99.90;;;;;;5097908;28;20252;-78
2021/01/31 08:43:40;;;;;;;30.10;18.10;;;0.00;99.90;;;;;;5090339;28;20617;-78
2021/01/31 08:46:10;;;;;;;25.30;17.70;;;0.10;99.90;;;;;;5072851;28;20194;-78
2021/01/31 08:48:36;;;;;;;27.53;18.07;;;0.10;99.90;;;;;;5102657;28;20205;-78
2021/01/31 08:51:15;;;;;;;25.07;17.17;;;0.20;99.90;;;;;;5096990;28;20177;-78
2021/01/31 08:53:44;;;;;;;26.80;18.27;;;0.40;99.90;;;;;;5097050;28;20170;-78
2021/01/31 08:56:31;;;;;;;27.00;18.73;;;0.50;99.90;;;;;;5096401;28;20635;-78
2021/01/31 08:58:57;;;;;;;24.90;17.37;;;0.60;99.90;;;;;;5094785;28;20223;-78
2021/01/31 09:01:23;;;;;;;26.17;18.43;;;0.70;99.90;;;;;;5092939;28;20609;-78
2021/01/31 09:03:49;;;;;;;25.50;17.07;;;0.70;99.90;;;;;;5076143;28;20224;-79
2021/01/31 09:06:16;;;;;;;28.10;18.60;;;0.70;99.90;;;;;;5087110;28;20178;-78
2021/01/31 09:08:45;;;;;;;24.17;17.97;;;0.80;99.90;;;;;;5090193;28;20201;-78
2021/01/31 09:11:17;;;;;;;26.27;17.63;;;0.80;99.90;;;;;;5091460;28;20178;-77
2021/01/31 09:13:43;;;;;;;25.47;22.77;;;0.80;99.90;;;;;;5095493;28;20177;-79
2021/01/31 09:16:24;;;;;;;24.80;17.40;;;0.80;99.90;;;;;;5082619;28;20182;-78
2021/01/31 09:19:16;;;;;;;25.73;17.60;;;0.70;99.90;;;;;;5083918;28;20249;-78
2021/01/31 09:21:43;;;;;;;25.73;17.77;;;0.90;99.90;;;;;;5112686;28;20273;-77
2021/01/31 09:24:13;;;;;;;25.20;17.50;;;1.10;99.90;;;;;;5102705;28;20174;-76
2021/01/31 09:26:39;;;;;;;25.70;17.07;;;1.00;99.90;;;;;;5086076;28;20179;-77
2021/01/31 09:29:10;;;;;;;26.80;17.60;;;0.80;99.90;;;;;;5076735;28;20194;-77
2021/01/31 09:31:38;;;;;;;23.70;17.57;;;0.90;99.90;;;;;;5093106;28;20182;-77
2021/01/31 09:34:05;;;;;;;24.40;22.10;;;0.70;99.90;;;;;;5097883;28;20227;-77
2021/01/31 09:36:36;;;;;;;25.03;22.53;;;0.80;99.90;;;;;;5097925;28;20200;-77
2021/01/31 09:39:05;;;;;;;21.40;15.33;;;1.00;99.90;;;;;;5096643;28;20198;-78
2021/01/31 09:41:32;;;;;;;22.20;16.10;;;1.20;99.90;;;;;;5072127;28;20206;-77
2021/01/31 09:44:02;;;;;;;24.17;21.70;;;1.30;99.90;;;;;;5071744;28;20650;-78
2021/01/31 09:46:29;;;;;;;24.43;21.97;;;1.40;99.90;;;;;;5100180;28;20189;-78
2021/01/31 09:49:13;;;;;;;25.60;23.00;;;1.50;99.90;;;;;;5105692;28;20269;-77
2021/01/31 09:51:40;;;;;;;24.23;21.60;;;1.40;99.90;;;;;;5088457;28;20182;-78
2021/01/31 09:54:19;;;;;;;24.50;21.97;;;1.30;99.90;;;;;;5088868;28;20186;-78
2021/01/31 09:56:56;;;;;;;24.50;21.97;;;1.50;99.90;;;;;;5093850;28;20198;-78
2021/01/31 09:59:31;;;;;;;25.03;22.27;;;1.80;99.90;;;;;;5098984;28;20191;-77
2021/01/31 10:02:08;;;;;;;22.97;20.67;;;1.90;99.90;;;;;;5099607;28;20197;-77
2021/01/31 10:04:35;;;;;;;22.37;20.17;;;1.90;99.90;;;;;;5097305;28;20228;-78
2021/01/31 10:07:22;;;;;;;23.13;20.70;;;1.80;99.90;;;;;;5091866;28;20187;-77
2021/01/31 10:09:50;;;;;;;21.23;19.13;;;1.90;99.90;;;;;;5087947;28;20200;-78
2021/01/31 10:12:33;;;;;;;21.93;19.63;;;1.80;99.90;;;;;;5099935;28;20258;-77
2021/01/31 10:15:07;;;;;;;21.07;18.80;;;1.90;99.90;;;;;;5091932;28;20174;-77
2021/01/31 10:17:41;;;;;;;20.53;18.57;;;1.90;99.90;;;;;;5094475;28;20312;-77
2021/01/31 10:20:37;;;;;;;22.87;20.57;;;2.20;99.90;;;;;;5096928;28;20184;-77
2021/01/31 10:23:15;;;;;;;21.53;19.37;;;2.40;99.90;;;;;;5106607;28;20229;-78
2021/01/31 10:25:55;;;;;;;22.40;20.20;;;2.30;99.90;;;;;;5090554;28;20178;-78
2021/01/31 10:28:32;;;;;;;21.63;19.27;;;2.30;99.90;;;;;;5098437;28;20867;-77
2021/01/31 10:30:58;;;;;;;21.50;19.30;;;2.30;99.90;;;;;;5080787;28;20232;-78
2021/01/31 10:33:48;;;;;;;21.10;18.97;;;2.50;99.90;;;;;;5086797;28;20297;-77
2021/01/31 10:36:25;;;;;;;21.73;19.53;;;2.70;99.90;;;;;;5056035;28;20218;-77
2021/01/31 10:38:53;;;;;;;20.93;18.83;;;2.50;99.90;;;;;;5085150;28;20297;-77
2021/01/31 10:41:18;;;;;;;20.80;18.67;;;2.70;99.90;;;;;;5067174;28;20209;-77
2021/01/31 10:44:00;;;;;;;21.13;18.93;;;2.80;99.90;;;;;;5088104;28;20174;-77
2021/01/31 10:46:26;;;;;;;20.93;18.83;;;2.70;99.90;;;;;;5076407;28;20186;-77
2021/01/31 10:48:52;;;;;;;20.70;18.60;;;2.50;99.90;;;;;;5086474;28;20191;-77
2021/01/31 10:51:18;;;;;;;21.23;19.20;;;2.60;99.90;;;;;;5095716;28;20182;-77
2021/01/31 10:53:43;;;;;;;21.73;19.53;;;2.70;99.90;;;;;;5091413;28;20179;-77
2021/01/31 10:56:09;;;;;;;21.63;19.47;;;2.60;99.90;;;;;;5093287;28;20183;-78
2021/01/31 10:58:35;;;;;;;20.57;18.47;;;2.60;99.90;;;;;;5068300;28;20190;-77
2021/01/31 11:01:00;;;;;;;22.37;19.93;;;2.30;99.90;;;;;;5092817;28;20184;-77
2021/01/31 11:03:26;;;;;;;23.10;20.80;;;2.30;99.90;;;;;;5092980;28;20210;-77
2021/01/31 11:05:52;;;;;;;22.50;20.10;;;2.20;99.90;;;;;;5093729;28;20183;-77
2021/01/31 11:08:18;;;;;;;22.73;20.30;;;2.30;99.90;;;;;;5091333;28;20726;-77
2021/01/31 11:10:43;;;;;;;20.97;18.77;;;2.20;99.90;;;;;;5085140;28;20543;-77
2021/01/31 11:13:09;;;;;;;22.93;20.53;;;2.00;99.90;;;;;;5091964;28;20200;-76
2021/01/31 11:15:34;;;;;;;22.90;20.10;;;2.20;99.90;;;;;;5079826;28;20273;-77
2021/01/31 11:18:00;;;;;;;23.53;21.00;;;2.60;99.90;;;;;;5092725;28;20194;-77
2021/01/31 11:20:26;;;;;;;23.57;21.07;;;2.60;99.90;;;;;;5089964;28;20524;-78
2021/01/31 11:22:51;;;;;;;24.13;21.57;;;2.60;99.90;;;;;;5095216;28;20309;-77
2021/01/31 11:25:17;;;;;;;22.43;20.03;;;2.60;99.90;;;;;;5093839;28;20178;-77
2021/01/31 11:27:43;;;;;;;23.57;20.83;;;2.70;99.90;;;;;;5094716;28;20266;-77
2021/01/31 11:30:09;;;;;;;22.73;20.43;;;2.90;99.90;;;;;;5101551;28;20666;-77
2021/01/31 11:32:35;;;;;;;23.23;19.63;;;2.90;99.90;;;;;;5090304;28;20573;-78
2021/01/31 11:35:00;;;;;;;23.13;20.63;;;2.70;99.90;;;;;;5076496;28;20182;-77
2021/01/31 11:37:26;;;;;;;23.13;20.73;;;2.70;99.90;;;;;;5086782;28;20185;-78
2021/01/31 11:39:51;;;;;;;21.57;19.37;;;2.80;99.90;;;;;;5083330;28;20699;-77
2021/01/31 11:42:17;;;;;;;23.07;20.63;;;2.70;99.90;;;;;;5093489;28;20213;-77
2021/01/31 11:44:44;;;;;;;21.57;18.87;;;2.70;99.90;;;;;;5080902;28;20207;-78
2021/01/31 11:47:09;;;;;;;21.30;19.00;;;2.40;99.90;;;;;;5081189;28;20171;-78
2021/01/31 11:49:35;;;;;;;21.80;19.50;;;2.40;99.90;;;;;;5082066;28;20186;-78
2021/01/31 11:52:01;;;;;;;22.33;19.93;;;2.60;99.90;;;;;;5093986;28;20209;-78
2021/01/31 11:54:27;;;;;;;22.67;19.87;;;2.80;99.90;;;;;;5097151;28;20200;-77
2021/01/31 11:56:52;;;;;;;22.80;20.40;;;3.00;99.90;;;;;;5085377;28;20186;-76
2021/01/31 11:59:18;;;;;;;22.13;19.80;;;3.20;99.90;;;;;;5095134;28;20200;-77
2021/01/31 12:01:43;;;;;;;20.57;18.47;;;3.20;99.90;;;;;;5093486;28;20316;-77
2021/01/31 12:04:09;;;;;;;21.70;19.50;;;3.30;99.90;;;;;;5076178;28;20201;-77
2021/01/31 12:06:35;;;;;;;22.03;19.77;;;3.10;99.90;;;;;;5098221;28;20207;-77
2021/01/31 12:09:01;;;;;;;22.53;20.13;;;3.00;99.90;;;;;;5093449;28;20196;-77
2021/01/31 12:11:28;;;;;;;21.50;19.30;;;2.90;99.90;;;;;;5072481;28;20535;-77
2021/01/31 12:13:55;;;;;;;21.37;19.07;;;3.20;99.90;;;;;;5092920;28;20186;-77
2021/01/31 12:16:20;;;;;;;23.10;19.60;;;3.50;99.90;;;;;;5093005;28;20189;-77
2021/01/31 12:18:46;;;;;;;22.87;20.47;;;3.70;99.90;;;;;;5091972;28;20650;-77
2021/01/31 12:21:12;;;;;;;22.87;20.43;;;3.90;99.90;;;;;;5094327;28;20178;-77
2021/01/31 12:23:37;;;;;;;21.23;18.90;;;3.80;99.90;;;;;;5092342;28;20171;-77
2021/01/31 12:26:03;;;;;;;21.63;19.40;;;3.50;99.90;;;;;;5092890;28;20579;-77
2021/01/31 12:28:28;;;;;;;21.00;18.83;;;3.40;99.90;;;;;;5093808;28;20181;-77
2021/01/31 12:30:54;;;;;;;22.00;19.70;;;3.50;99.90;;;;;;5083095;28;20571;-77
2021/01/31 12:33:20;;;;;;;22.47;19.87;;;3.70;99.90;;;;;;5091927;28;20189;-77
2021/01/31 12:35:51;;;;;;;23.00;20.60;;;4.00;99.90;;;;;;5093983;28;20586;-78
2021/01/31 12:38:16;;;;;;;21.93;19.63;;;3.80;99.90;;;;;;5067870;28;20402;-77
2021/01/31 12:40:42;;;;;;;21.20;19.13;;;4.00;99.90;;;;;;5094388;28;20254;-77
2021/01/31 12:43:08;;;;;;;22.00;18.70;;;3.70;99.90;;;;;;5093386;28;20288;-77
2021/01/31 12:45:33;;;;;;;20.83;18.73;;;3.70;99.90;;;;;;5092173;28;20179;-77
2021/01/31 12:47:59;;;;;;;21.87;18.87;;;3.40;99.90;;;;;;5094619;28;20180;-77
2021/01/31 12:50:27;;;;;;;21.33;19.23;;;3.50;99.90;;;;;;5090264;28;20192;-77
2021/01/31 12:52:52;;;;;;;21.67;19.17;;;3.40;99.90;;;;;;5095031;28;20188;-77
2021/01/31 12:55:19;;;;;;;20.00;17.90;;;3.50;99.90;;;;;;5099044;28;20705;-77
2021/01/31 12:57:44;;;;;;;19.93;17.83;;;3.30;99.90;;;;;;5099330;28;20207;-77